sensor_id;sensor_type;location;lat;lon;timestamp;P1;durP1;ratioP1;P2;durP2;ratioP2
24277;SDS011;12394;42.692;23.314;2023-12-20T00:01:39;189.70;;;115.60;;
24277;SDS011;12394;42.692;23.314;2023-12-20T00:04:05;186.63;;;113.40;;
24277;SDS011;12394;42.692;23.314;2023-12-20T00:06:31;194.83;;;111.97;;
24277;SDS011;12394;42.692;23.314;2023-12-20T00:08:56;185.83;;;109.93;;
24277;SDS011;12394;42.692;23.314;2023-12-20T00:11:23;200.27;;;112.23;;
24277;SDS011;12394;42.692;23.314;2023-12-20T00:13:49;173.40;;;107.13;;
24277;SDS011;12394;42.692;23.314;2023-12-20T00:16:14;187.60;;;111.50;;
24277;SDS011;12394;42.692;23.314;2023-12-20T00:18:40;173.80;;;109.57;;
24277;SDS011;12394;42.692;23.314;2023-12-20T00:21:05;185.73;;;106.90;;
24277;SDS011;12394;42.692;23.314;2023-12-20T00:23:31;180.87;;;109.23;;
24277;SDS011;12394;42.692;23.314;2023-12-20T00:25:57;186.47;;;111.83;;
24277;SDS011;12394;42.692;23.314;2023-12-20T00:28:23;176.50;;;108.13;;
24277;SDS011;12394;42.692;23.314;2023-12-20T00:30:48;183.57;;;108.17;;
24277;SDS011;12394;42.692;23.314;2023-12-20T00:33:13;182.53;;;106.57;;
24277;SDS011;12394;42.692;23.314;2023-12-20T00:35:39;176.10;;;104.27;;
24277;SDS011;12394;42.692;23.314;2023-12-20T00:38:05;172.67;;;103.27;;
24277;SDS011;12394;42.692;23.314;2023-12-20T00:40:32;177.17;;;102.77;;
24277;SDS011;12394;42.692;23.314;2023-12-20T00:42:58;168.93;;;100.53;;
24277;SDS011;12394;42.692;23.314;2023-12-20T00:45:23;158.33;;;97.23;;
24277;SDS011;12394;42.692;23.314;2023-12-20T00:47:49;162.60;;;98.23;;
24277;SDS011;12394;42.692;23.314;2023-12-20T00:50:14;160.03;;;93.07;;
24277;SDS011;12394;42.692;23.314;2023-12-20T00:52:40;166.77;;;101.67;;
24277;SDS011;12394;42.692;23.314;2023-12-20T00:55:05;176.93;;;102.80;;
24277;SDS011;12394;42.692;23.314;2023-12-20T00:57:31;166.03;;;98.73;;
24277;SDS011;12394;42.692;23.314;2023-12-20T00:59:56;167.83;;;101.43;;
24277;SDS011;12394;42.692;23.314;2023-12-20T01:02:22;165.10;;;100.10;;
24277;SDS011;12394;42.692;23.314;2023-12-20T01:04:47;173.47;;;102.50;;
24277;SDS011;12394;42.692;23.314;2023-12-20T01:07:13;164.47;;;102.70;;
24277;SDS011;12394;42.692;23.314;2023-12-20T01:09:38;183.43;;;108.10;;
24277;SDS011;12394;42.692;23.314;2023-12-20T01:12:04;185.67;;;109.47;;
24277;SDS011;12394;42.692;23.314;2023-12-20T01:14:29;187.83;;;113.10;;
24277;SDS011;12394;42.692;23.314;2023-12-20T01:16:55;182.97;;;111.00;;
24277;SDS011;12394;42.692;23.314;2023-12-20T01:19:20;181.63;;;108.20;;
24277;SDS011;12394;42.692;23.314;2023-12-20T01:21:46;202.33;;;115.17;;
24277;SDS011;12394;42.692;23.314;2023-12-20T01:24:12;206.73;;;122.07;;
24277;SDS011;12394;42.692;23.314;2023-12-20T01:26:37;200.67;;;117.00;;
24277;SDS011;12394;42.692;23.314;2023-12-20T01:29:03;198.23;;;117.47;;
24277;SDS011;12394;42.692;23.314;2023-12-20T01:31:28;203.63;;;117.83;;
24277;SDS011;12394;42.692;23.314;2023-12-20T01:33:54;207.07;;;115.73;;
24277;SDS011;12394;42.692;23.314;2023-12-20T01:36:19;204.80;;;118.27;;
24277;SDS011;12394;42.692;23.314;2023-12-20T01:38:45;203.13;;;117.63;;
24277;SDS011;12394;42.692;23.314;2023-12-20T01:41:10;191.40;;;113.63;;
24277;SDS011;12394;42.692;23.314;2023-12-20T01:43:35;209.70;;;118.23;;
24277;SDS011;12394;42.692;23.314;2023-12-20T01:46:02;195.90;;;114.33;;
24277;SDS011;12394;42.692;23.314;2023-12-20T01:48:28;199.30;;;109.23;;
24277;SDS011;12394;42.692;23.314;2023-12-20T01:50:54;193.20;;;110.03;;
24277;SDS011;12394;42.692;23.314;2023-12-20T01:53:21;186.70;;;106.00;;
24277;SDS011;12394;42.692;23.314;2023-12-20T01:55:49;178.03;;;101.93;;
24277;SDS011;12394;42.692;23.314;2023-12-20T01:58:17;178.47;;;101.47;;
24277;SDS011;12394;42.692;23.314;2023-12-20T02:00:44;169.63;;;101.63;;
24277;SDS011;12394;42.692;23.314;2023-12-20T02:03:09;165.40;;;95.70;;
24277;SDS011;12394;42.692;23.314;2023-12-20T02:05:36;172.80;;;95.80;;
24277;SDS011;12394;42.692;23.314;2023-12-20T02:08:03;165.57;;;96.23;;
24277;SDS011;12394;42.692;23.314;2023-12-20T02:10:29;170.93;;;100.93;;
24277;SDS011;12394;42.692;23.314;2023-12-20T02:12:55;177.83;;;101.20;;
24277;SDS011;12394;42.692;23.314;2023-12-20T02:15:20;171.83;;;97.93;;
24277;SDS011;12394;42.692;23.314;2023-12-20T02:17:46;166.60;;;97.37;;
24277;SDS011;12394;42.692;23.314;2023-12-20T02:20:13;165.40;;;94.97;;
24277;SDS011;12394;42.692;23.314;2023-12-20T02:22:39;160.63;;;92.73;;
24277;SDS011;12394;42.692;23.314;2023-12-20T02:25:05;148.00;;;87.53;;
24277;SDS011;12394;42.692;23.314;2023-12-20T02:27:31;144.40;;;86.47;;
24277;SDS011;12394;42.692;23.314;2023-12-20T02:29:56;143.67;;;86.23;;
24277;SDS011;12394;42.692;23.314;2023-12-20T02:32:22;146.03;;;85.70;;
24277;SDS011;12394;42.692;23.314;2023-12-20T02:34:51;142.07;;;79.43;;
24277;SDS011;12394;42.692;23.314;2023-12-20T02:37:16;151.43;;;86.63;;
24277;SDS011;12394;42.692;23.314;2023-12-20T02:39:42;147.50;;;87.03;;
24277;SDS011;12394;42.692;23.314;2023-12-20T02:42:07;146.10;;;86.00;;
24277;SDS011;12394;42.692;23.314;2023-12-20T02:44:32;164.93;;;88.57;;
24277;SDS011;12394;42.692;23.314;2023-12-20T02:46:58;157.23;;;96.40;;
24277;SDS011;12394;42.692;23.314;2023-12-20T02:49:23;159.47;;;91.90;;
24277;SDS011;12394;42.692;23.314;2023-12-20T02:51:49;161.70;;;89.50;;
24277;SDS011;12394;42.692;23.314;2023-12-20T02:54:14;153.50;;;83.00;;
24277;SDS011;12394;42.692;23.314;2023-12-20T02:56:40;143.53;;;80.50;;
24277;SDS011;12394;42.692;23.314;2023-12-20T02:59:05;144.77;;;79.80;;
24277;SDS011;12394;42.692;23.314;2023-12-20T03:01:33;131.20;;;73.50;;
24277;SDS011;12394;42.692;23.314;2023-12-20T03:03:59;122.37;;;68.47;;
24277;SDS011;12394;42.692;23.314;2023-12-20T03:06:25;116.50;;;62.73;;
24277;SDS011;12394;42.692;23.314;2023-12-20T03:08:50;121.63;;;66.17;;
24277;SDS011;12394;42.692;23.314;2023-12-20T03:11:16;115.53;;;63.20;;
24277;SDS011;12394;42.692;23.314;2023-12-20T03:13:41;104.90;;;58.97;;
24277;SDS011;12394;42.692;23.314;2023-12-20T03:16:10;106.10;;;54.40;;
24277;SDS011;12394;42.692;23.314;2023-12-20T03:18:36;95.77;;;53.30;;
24277;SDS011;12394;42.692;23.314;2023-12-20T03:21:02;110.43;;;54.90;;
24277;SDS011;12394;42.692;23.314;2023-12-20T03:23:29;110.17;;;53.63;;
24277;SDS011;12394;42.692;23.314;2023-12-20T03:25:55;101.83;;;52.00;;
24277;SDS011;12394;42.692;23.314;2023-12-20T03:28:21;101.27;;;54.27;;
24277;SDS011;12394;42.692;23.314;2023-12-20T03:30:48;109.33;;;53.83;;
24277;SDS011;12394;42.692;23.314;2023-12-20T03:33:13;123.67;;;56.20;;
24277;SDS011;12394;42.692;23.314;2023-12-20T03:35:39;112.83;;;56.47;;
24277;SDS011;12394;42.692;23.314;2023-12-20T03:38:04;110.50;;;53.73;;
24277;SDS011;12394;42.692;23.314;2023-12-20T03:40:30;121.00;;;53.13;;
24277;SDS011;12394;42.692;23.314;2023-12-20T03:42:55;119.63;;;57.80;;
24277;SDS011;12394;42.692;23.314;2023-12-20T03:45:21;114.13;;;57.53;;
24277;SDS011;12394;42.692;23.314;2023-12-20T03:47:46;110.23;;;55.87;;
24277;SDS011;12394;42.692;23.314;2023-12-20T03:50:12;108.60;;;56.00;;
24277;SDS011;12394;42.692;23.314;2023-12-20T03:52:38;109.43;;;56.30;;
24277;SDS011;12394;42.692;23.314;2023-12-20T03:55:03;117.10;;;55.87;;
24277;SDS011;12394;42.692;23.314;2023-12-20T03:57:29;111.73;;;55.33;;
24277;SDS011;12394;42.692;23.314;2023-12-20T03:59:55;109.83;;;56.43;;
24277;SDS011;12394;42.692;23.314;2023-12-20T04:02:20;105.90;;;54.63;;
24277;SDS011;12394;42.692;23.314;2023-12-20T04:04:45;115.47;;;54.97;;
24277;SDS011;12394;42.692;23.314;2023-12-20T04:07:11;101.00;;;52.80;;
24277;SDS011;12394;42.692;23.314;2023-12-20T04:09:36;109.03;;;52.57;;
24277;SDS011;12394;42.692;23.314;2023-12-20T04:12:02;125.90;;;55.80;;
24277;SDS011;12394;42.692;23.314;2023-12-20T04:14:28;104.30;;;53.77;;
24277;SDS011;12394;42.692;23.314;2023-12-20T04:16:54;101.37;;;54.07;;
24277;SDS011;12394;42.692;23.314;2023-12-20T04:19:19;107.30;;;53.50;;
24277;SDS011;12394;42.692;23.314;2023-12-20T04:21:45;106.43;;;54.70;;
24277;SDS011;12394;42.692;23.314;2023-12-20T04:24:10;119.10;;;55.83;;
24277;SDS011;12394;42.692;23.314;2023-12-20T04:26:36;108.63;;;51.77;;
24277;SDS011;12394;42.692;23.314;2023-12-20T04:29:01;104.30;;;54.47;;
24277;SDS011;12394;42.692;23.314;2023-12-20T04:31:27;107.73;;;53.70;;
24277;SDS011;12394;42.692;23.314;2023-12-20T04:33:53;114.13;;;54.00;;
24277;SDS011;12394;42.692;23.314;2023-12-20T04:36:18;107.97;;;53.63;;
24277;SDS011;12394;42.692;23.314;2023-12-20T04:38:44;113.53;;;54.90;;
24277;SDS011;12394;42.692;23.314;2023-12-20T04:41:09;115.33;;;56.83;;
24277;SDS011;12394;42.692;23.314;2023-12-20T04:43:35;112.13;;;54.70;;
24277;SDS011;12394;42.692;23.314;2023-12-20T04:46:00;102.50;;;52.67;;
24277;SDS011;12394;42.692;23.314;2023-12-20T04:48:26;98.83;;;51.30;;
24277;SDS011;12394;42.692;23.314;2023-12-20T04:50:51;108.43;;;52.53;;
24277;SDS011;12394;42.692;23.314;2023-12-20T04:53:17;121.57;;;56.07;;
24277;SDS011;12394;42.692;23.314;2023-12-20T04:55:42;119.50;;;53.50;;
24277;SDS011;12394;42.692;23.314;2023-12-20T04:58:07;117.00;;;54.70;;
24277;SDS011;12394;42.692;23.314;2023-12-20T05:00:33;113.47;;;52.30;;
24277;SDS011;12394;42.692;23.314;2023-12-20T05:02:58;122.07;;;57.47;;
24277;SDS011;12394;42.692;23.314;2023-12-20T05:05:24;120.90;;;55.57;;
24277;SDS011;12394;42.692;23.314;2023-12-20T05:07:49;111.17;;;54.27;;
24277;SDS011;12394;42.692;23.314;2023-12-20T05:10:15;118.67;;;55.80;;
24277;SDS011;12394;42.692;23.314;2023-12-20T05:12:40;116.07;;;55.00;;
24277;SDS011;12394;42.692;23.314;2023-12-20T05:15:06;112.03;;;55.57;;
24277;SDS011;12394;42.692;23.314;2023-12-20T05:17:32;105.20;;;51.83;;
24277;SDS011;12394;42.692;23.314;2023-12-20T05:19:57;117.13;;;54.80;;
24277;SDS011;12394;42.692;23.314;2023-12-20T05:22:23;107.57;;;52.77;;
24277;SDS011;12394;42.692;23.314;2023-12-20T05:24:49;110.63;;;55.33;;
24277;SDS011;12394;42.692;23.314;2023-12-20T05:27:14;108.30;;;54.10;;
24277;SDS011;12394;42.692;23.314;2023-12-20T05:29:39;110.60;;;55.30;;
24277;SDS011;12394;42.692;23.314;2023-12-20T05:32:05;117.27;;;55.50;;
24277;SDS011;12394;42.692;23.314;2023-12-20T05:34:31;111.13;;;52.93;;
24277;SDS011;12394;42.692;23.314;2023-12-20T05:36:57;99.40;;;52.37;;
24277;SDS011;12394;42.692;23.314;2023-12-20T05:39:23;114.17;;;54.97;;
24277;SDS011;12394;42.692;23.314;2023-12-20T05:41:49;104.97;;;51.80;;
24277;SDS011;12394;42.692;23.314;2023-12-20T05:44:14;101.37;;;51.33;;
24277;SDS011;12394;42.692;23.314;2023-12-20T05:46:40;111.63;;;50.80;;
24277;SDS011;12394;42.692;23.314;2023-12-20T05:49:05;91.43;;;49.27;;
24277;SDS011;12394;42.692;23.314;2023-12-20T05:51:31;119.50;;;56.17;;
24277;SDS011;12394;42.692;23.314;2023-12-20T05:53:57;108.53;;;50.80;;
24277;SDS011;12394;42.692;23.314;2023-12-20T05:56:23;127.30;;;55.77;;
24277;SDS011;12394;42.692;23.314;2023-12-20T05:58:48;109.00;;;54.43;;
24277;SDS011;12394;42.692;23.314;2023-12-20T06:01:14;116.50;;;52.17;;
24277;SDS011;12394;42.692;23.314;2023-12-20T06:03:42;113.73;;;50.70;;
24277;SDS011;12394;42.692;23.314;2023-12-20T06:06:08;99.73;;;51.63;;
24277;SDS011;12394;42.692;23.314;2023-12-20T06:08:34;103.07;;;50.93;;
24277;SDS011;12394;42.692;23.314;2023-12-20T06:10:59;98.83;;;50.67;;
24277;SDS011;12394;42.692;23.314;2023-12-20T06:13:25;100.97;;;52.87;;
24277;SDS011;12394;42.692;23.314;2023-12-20T06:15:51;306.63;;;153.03;;
24277;SDS011;12394;42.692;23.314;2023-12-20T06:18:17;102.47;;;51.93;;
24277;SDS011;12394;42.692;23.314;2023-12-20T06:20:42;124.93;;;71.93;;
24277;SDS011;12394;42.692;23.314;2023-12-20T06:23:08;103.77;;;53.20;;
24277;SDS011;12394;42.692;23.314;2023-12-20T06:25:33;119.33;;;63.50;;
24277;SDS011;12394;42.692;23.314;2023-12-20T06:27:59;107.47;;;52.07;;
24277;SDS011;12394;42.692;23.314;2023-12-20T06:30:24;118.30;;;52.13;;
24277;SDS011;12394;42.692;23.314;2023-12-20T06:32:50;98.87;;;50.53;;
24277;SDS011;12394;42.692;23.314;2023-12-20T06:35:16;113.83;;;52.57;;
24277;SDS011;12394;42.692;23.314;2023-12-20T06:37:41;107.60;;;52.20;;
24277;SDS011;12394;42.692;23.314;2023-12-20T06:40:10;98.80;;;51.63;;
24277;SDS011;12394;42.692;23.314;2023-12-20T06:42:36;122.17;;;54.93;;
24277;SDS011;12394;42.692;23.314;2023-12-20T06:45:02;115.57;;;54.73;;
24277;SDS011;12394;42.692;23.314;2023-12-20T06:47:28;125.57;;;56.37;;
24277;SDS011;12394;42.692;23.314;2023-12-20T06:49:54;116.83;;;56.20;;
24277;SDS011;12394;42.692;23.314;2023-12-20T06:52:19;116.77;;;55.83;;
24277;SDS011;12394;42.692;23.314;2023-12-20T06:54:45;108.33;;;55.07;;
24277;SDS011;12394;42.692;23.314;2023-12-20T06:57:10;107.17;;;53.97;;
24277;SDS011;12394;42.692;23.314;2023-12-20T06:59:43;124.43;;;56.53;;
24277;SDS011;12394;42.692;23.314;2023-12-20T07:02:09;123.33;;;60.87;;
24277;SDS011;12394;42.692;23.314;2023-12-20T07:04:38;115.80;;;55.43;;
24277;SDS011;12394;42.692;23.314;2023-12-20T07:07:05;119.20;;;58.80;;
24277;SDS011;12394;42.692;23.314;2023-12-20T07:09:30;122.77;;;59.00;;
24277;SDS011;12394;42.692;23.314;2023-12-20T07:11:56;121.33;;;58.67;;
24277;SDS011;12394;42.692;23.314;2023-12-20T07:14:21;114.47;;;58.13;;
24277;SDS011;12394;42.692;23.314;2023-12-20T07:16:47;116.80;;;58.47;;
24277;SDS011;12394;42.692;23.314;2023-12-20T07:19:12;119.60;;;60.30;;
24277;SDS011;12394;42.692;23.314;2023-12-20T07:21:38;119.33;;;59.67;;
24277;SDS011;12394;42.692;23.314;2023-12-20T07:24:03;112.40;;;58.23;;
24277;SDS011;12394;42.692;23.314;2023-12-20T07:26:29;120.10;;;60.73;;
24277;SDS011;12394;42.692;23.314;2023-12-20T07:28:54;116.73;;;59.30;;
24277;SDS011;12394;42.692;23.314;2023-12-20T07:31:20;123.03;;;60.63;;
24277;SDS011;12394;42.692;23.314;2023-12-20T07:33:45;123.40;;;60.33;;
24277;SDS011;12394;42.692;23.314;2023-12-20T07:36:11;112.47;;;59.27;;
24277;SDS011;12394;42.692;23.314;2023-12-20T07:38:37;120.30;;;59.43;;
24277;SDS011;12394;42.692;23.314;2023-12-20T07:41:03;115.10;;;58.80;;
24277;SDS011;12394;42.692;23.314;2023-12-20T07:43:29;110.33;;;57.27;;
24277;SDS011;12394;42.692;23.314;2023-12-20T07:45:54;116.70;;;60.20;;
24277;SDS011;12394;42.692;23.314;2023-12-20T07:48:20;123.67;;;59.23;;
24277;SDS011;12394;42.692;23.314;2023-12-20T07:50:45;117.07;;;59.77;;
24277;SDS011;12394;42.692;23.314;2023-12-20T07:53:11;125.43;;;62.17;;
24277;SDS011;12394;42.692;23.314;2023-12-20T07:55:36;125.07;;;62.77;;
24277;SDS011;12394;42.692;23.314;2023-12-20T07:58:02;128.83;;;62.60;;
24277;SDS011;12394;42.692;23.314;2023-12-20T08:00:27;129.43;;;61.03;;
24277;SDS011;12394;42.692;23.314;2023-12-20T08:02:53;138.53;;;67.60;;
24277;SDS011;12394;42.692;23.314;2023-12-20T08:05:19;126.37;;;61.97;;
24277;SDS011;12394;42.692;23.314;2023-12-20T08:07:44;121.70;;;61.27;;
24277;SDS011;12394;42.692;23.314;2023-12-20T08:10:10;130.33;;;61.37;;
24277;SDS011;12394;42.692;23.314;2023-12-20T08:12:36;126.93;;;63.47;;
24277;SDS011;12394;42.692;23.314;2023-12-20T08:15:02;127.60;;;63.70;;
24277;SDS011;12394;42.692;23.314;2023-12-20T08:17:29;134.33;;;64.07;;
24277;SDS011;12394;42.692;23.314;2023-12-20T08:19:54;130.47;;;62.53;;
24277;SDS011;12394;42.692;23.314;2023-12-20T08:22:20;136.90;;;68.57;;
24277;SDS011;12394;42.692;23.314;2023-12-20T08:24:45;146.00;;;66.40;;
24277;SDS011;12394;42.692;23.314;2023-12-20T08:27:10;151.57;;;68.67;;
24277;SDS011;12394;42.692;23.314;2023-12-20T08:29:36;136.83;;;65.73;;
24277;SDS011;12394;42.692;23.314;2023-12-20T08:32:01;148.83;;;67.27;;
24277;SDS011;12394;42.692;23.314;2023-12-20T08:34:27;135.63;;;66.77;;
24277;SDS011;12394;42.692;23.314;2023-12-20T08:36:53;141.23;;;69.50;;
24277;SDS011;12394;42.692;23.314;2023-12-20T08:39:19;152.47;;;69.37;;
24277;SDS011;12394;42.692;23.314;2023-12-20T08:41:44;139.33;;;66.63;;
24277;SDS011;12394;42.692;23.314;2023-12-20T08:44:10;148.13;;;68.50;;
24277;SDS011;12394;42.692;23.314;2023-12-20T08:46:35;150.23;;;67.80;;
24277;SDS011;12394;42.692;23.314;2023-12-20T08:49:01;148.33;;;64.53;;
24277;SDS011;12394;42.692;23.314;2023-12-20T08:51:27;154.53;;;70.37;;
24277;SDS011;12394;42.692;23.314;2023-12-20T08:53:54;137.43;;;66.90;;
24277;SDS011;12394;42.692;23.314;2023-12-20T08:56:19;133.50;;;67.67;;
24277;SDS011;12394;42.692;23.314;2023-12-20T08:58:48;130.00;;;67.37;;
24277;SDS011;12394;42.692;23.314;2023-12-20T09:01:13;144.43;;;68.23;;
24277;SDS011;12394;42.692;23.314;2023-12-20T09:03:39;142.13;;;70.13;;
24277;SDS011;12394;42.692;23.314;2023-12-20T09:06:05;148.20;;;69.00;;
24277;SDS011;12394;42.692;23.314;2023-12-20T09:08:31;144.53;;;69.70;;
24277;SDS011;12394;42.692;23.314;2023-12-20T09:10:57;150.83;;;70.00;;
24277;SDS011;12394;42.692;23.314;2023-12-20T09:13:22;148.40;;;72.43;;
24277;SDS011;12394;42.692;23.314;2023-12-20T09:15:53;151.27;;;72.67;;
24277;SDS011;12394;42.692;23.314;2023-12-20T09:18:20;143.33;;;68.93;;
24277;SDS011;12394;42.692;23.314;2023-12-20T09:20:45;145.97;;;70.80;;
24277;SDS011;12394;42.692;23.314;2023-12-20T09:23:11;140.20;;;69.93;;
24277;SDS011;12394;42.692;23.314;2023-12-20T09:25:36;151.40;;;76.57;;
24277;SDS011;12394;42.692;23.314;2023-12-20T09:28:02;151.00;;;74.00;;
24277;SDS011;12394;42.692;23.314;2023-12-20T09:30:27;157.20;;;73.90;;
24277;SDS011;12394;42.692;23.314;2023-12-20T09:32:54;154.63;;;75.73;;
24277;SDS011;12394;42.692;23.314;2023-12-20T09:35:20;155.97;;;72.53;;
24277;SDS011;12394;42.692;23.314;2023-12-20T09:37:46;154.07;;;76.13;;
24277;SDS011;12394;42.692;23.314;2023-12-20T09:40:12;152.23;;;72.27;;
24277;SDS011;12394;42.692;23.314;2023-12-20T09:42:41;125.93;;;66.60;;
24277;SDS011;12394;42.692;23.314;2023-12-20T09:45:09;142.30;;;72.77;;
24277;SDS011;12394;42.692;23.314;2023-12-20T09:47:38;147.63;;;75.60;;
24277;SDS011;12394;42.692;23.314;2023-12-20T09:50:05;111.83;;;59.43;;
24277;SDS011;12394;42.692;23.314;2023-12-20T09:52:31;106.87;;;59.87;;
24277;SDS011;12394;42.692;23.314;2023-12-20T09:54:58;100.67;;;57.47;;
24277;SDS011;12394;42.692;23.314;2023-12-20T09:57:24;113.27;;;64.57;;
24277;SDS011;12394;42.692;23.314;2023-12-20T09:59:50;117.90;;;62.50;;
24277;SDS011;12394;42.692;23.314;2023-12-20T10:02:15;112.23;;;64.33;;
24277;SDS011;12394;42.692;23.314;2023-12-20T10:04:46;120.53;;;63.40;;
24277;SDS011;12394;42.692;23.314;2023-12-20T10:07:13;149.67;;;83.40;;
24277;SDS011;12394;42.692;23.314;2023-12-20T10:09:38;121.10;;;66.80;;
24277;SDS011;12394;42.692;23.314;2023-12-20T10:12:04;126.83;;;65.97;;
24277;SDS011;12394;42.692;23.314;2023-12-20T10:14:30;150.10;;;90.23;;
24277;SDS011;12394;42.692;23.314;2023-12-20T10:17:03;131.27;;;76.77;;
24277;SDS011;12394;42.692;23.314;2023-12-20T10:19:29;137.13;;;75.83;;
24277;SDS011;12394;42.692;23.314;2023-12-20T10:21:55;150.23;;;79.03;;
24277;SDS011;12394;42.692;23.314;2023-12-20T10:24:20;148.53;;;76.60;;
24277;SDS011;12394;42.692;23.314;2023-12-20T10:26:46;145.07;;;79.50;;
24277;SDS011;12394;42.692;23.314;2023-12-20T10:29:11;147.10;;;81.60;;
24277;SDS011;12394;42.692;23.314;2023-12-20T10:31:37;146.30;;;79.53;;
24277;SDS011;12394;42.692;23.314;2023-12-20T10:34:07;162.57;;;86.97;;
24277;SDS011;12394;42.692;23.314;2023-12-20T10:36:33;144.93;;;80.20;;
24277;SDS011;12394;42.692;23.314;2023-12-20T10:38:58;148.23;;;79.10;;
24277;SDS011;12394;42.692;23.314;2023-12-20T10:41:31;149.77;;;81.10;;
24277;SDS011;12394;42.692;23.314;2023-12-20T10:44:01;138.13;;;79.63;;
24277;SDS011;12394;42.692;23.314;2023-12-20T10:46:28;158.27;;;87.30;;
24277;SDS011;12394;42.692;23.314;2023-12-20T10:48:55;151.03;;;82.30;;
24277;SDS011;12394;42.692;23.314;2023-12-20T10:51:21;153.70;;;83.37;;
24277;SDS011;12394;42.692;23.314;2023-12-20T10:53:48;142.37;;;81.73;;
24277;SDS011;12394;42.692;23.314;2023-12-20T10:56:15;144.90;;;82.90;;
24277;SDS011;12394;42.692;23.314;2023-12-20T10:58:43;141.53;;;80.43;;
24277;SDS011;12394;42.692;23.314;2023-12-20T11:01:09;144.37;;;80.97;;
24277;SDS011;12394;42.692;23.314;2023-12-20T11:03:39;149.20;;;82.70;;
24277;SDS011;12394;42.692;23.314;2023-12-20T11:06:23;146.30;;;79.57;;
24277;SDS011;12394;42.692;23.314;2023-12-20T11:11:55;146.90;;;80.97;;
24277;SDS011;12394;42.692;23.314;2023-12-20T11:14:29;166.50;;;83.90;;
24277;SDS011;12394;42.692;23.314;2023-12-20T11:17:10;166.63;;;85.07;;
24277;SDS011;12394;42.692;23.314;2023-12-20T11:22:31;156.27;;;79.67;;
24277;SDS011;12394;42.692;23.314;2023-12-20T11:25:04;150.73;;;77.90;;
24277;SDS011;12394;42.692;23.314;2023-12-20T11:27:33;138.50;;;75.47;;
24277;SDS011;12394;42.692;23.314;2023-12-20T11:29:59;140.87;;;71.50;;
24277;SDS011;12394;42.692;23.314;2023-12-20T11:34:55;132.10;;;65.47;;
24277;SDS011;12394;42.692;23.314;2023-12-20T11:37:31;142.63;;;68.13;;
24277;SDS011;12394;42.692;23.314;2023-12-20T11:40:01;132.20;;;61.77;;
24277;SDS011;12394;42.692;23.314;2023-12-20T11:42:39;124.03;;;64.03;;
24277;SDS011;12394;42.692;23.314;2023-12-20T11:45:08;132.97;;;64.83;;
24277;SDS011;12394;42.692;23.314;2023-12-20T11:47:34;125.60;;;65.23;;
24277;SDS011;12394;42.692;23.314;2023-12-20T11:50:01;128.13;;;65.87;;
24277;SDS011;12394;42.692;23.314;2023-12-20T11:52:29;139.17;;;65.97;;
24277;SDS011;12394;42.692;23.314;2023-12-20T11:54:55;140.43;;;69.67;;
24277;SDS011;12394;42.692;23.314;2023-12-20T11:57:20;127.93;;;59.87;;
24277;SDS011;12394;42.692;23.314;2023-12-20T11:59:46;115.77;;;60.43;;
24277;SDS011;12394;42.692;23.314;2023-12-20T12:02:12;108.57;;;58.13;;
24277;SDS011;12394;42.692;23.314;2023-12-20T12:04:37;117.13;;;57.47;;
24277;SDS011;12394;42.692;23.314;2023-12-20T12:07:03;118.97;;;56.50;;
24277;SDS011;12394;42.692;23.314;2023-12-20T12:09:28;115.93;;;59.80;;
24277;SDS011;12394;42.692;23.314;2023-12-20T12:11:54;109.03;;;58.63;;
24277;SDS011;12394;42.692;23.314;2023-12-20T12:14:20;112.93;;;59.27;;
24277;SDS011;12394;42.692;23.314;2023-12-20T12:16:45;117.73;;;62.07;;
24277;SDS011;12394;42.692;23.314;2023-12-20T12:19:24;115.80;;;56.83;;
24277;SDS011;12394;42.692;23.314;2023-12-20T12:22:07;116.90;;;61.37;;
24277;SDS011;12394;42.692;23.314;2023-12-20T12:24:38;122.90;;;61.50;;
24277;SDS011;12394;42.692;23.314;2023-12-20T12:27:05;124.40;;;66.90;;
24277;SDS011;12394;42.692;23.314;2023-12-20T12:29:32;131.83;;;69.57;;
24277;SDS011;12394;42.692;23.314;2023-12-20T12:31:58;138.37;;;66.37;;
24277;SDS011;12394;42.692;23.314;2023-12-20T12:34:24;132.90;;;68.63;;
24277;SDS011;12394;42.692;23.314;2023-12-20T12:36:52;124.50;;;66.10;;
24277;SDS011;12394;42.692;23.314;2023-12-20T12:39:18;128.60;;;66.97;;
24277;SDS011;12394;42.692;23.314;2023-12-20T12:41:43;125.73;;;65.87;;
24277;SDS011;12394;42.692;23.314;2023-12-20T12:44:09;133.20;;;68.60;;
24277;SDS011;12394;42.692;23.314;2023-12-20T12:46:34;125.53;;;66.57;;
24277;SDS011;12394;42.692;23.314;2023-12-20T12:49:00;132.70;;;68.47;;
24277;SDS011;12394;42.692;23.314;2023-12-20T12:51:26;125.30;;;66.23;;
24277;SDS011;12394;42.692;23.314;2023-12-20T12:53:51;129.43;;;64.67;;
24277;SDS011;12394;42.692;23.314;2023-12-20T12:56:18;120.43;;;62.13;;
24277;SDS011;12394;42.692;23.314;2023-12-20T12:58:43;135.60;;;67.33;;
24277;SDS011;12394;42.692;23.314;2023-12-20T13:01:09;132.63;;;66.10;;
24277;SDS011;12394;42.692;23.314;2023-12-20T13:03:35;124.27;;;63.40;;
24277;SDS011;12394;42.692;23.314;2023-12-20T13:06:01;125.73;;;65.20;;
24277;SDS011;12394;42.692;23.314;2023-12-20T13:08:26;130.20;;;64.77;;
24277;SDS011;12394;42.692;23.314;2023-12-20T13:10:52;157.70;;;84.40;;
24277;SDS011;12394;42.692;23.314;2023-12-20T13:13:18;162.77;;;88.33;;
24277;SDS011;12394;42.692;23.314;2023-12-20T13:15:43;136.30;;;66.93;;
24277;SDS011;12394;42.692;23.314;2023-12-20T13:18:16;130.07;;;67.13;;
24277;SDS011;12394;42.692;23.314;2023-12-20T13:20:43;130.10;;;68.27;;
24277;SDS011;12394;42.692;23.314;2023-12-20T13:23:09;127.73;;;65.10;;
24277;SDS011;12394;42.692;23.314;2023-12-20T13:25:34;143.70;;;66.80;;
24277;SDS011;12394;42.692;23.314;2023-12-20T13:28:00;143.97;;;67.03;;
24277;SDS011;12394;42.692;23.314;2023-12-20T13:30:26;129.97;;;67.33;;
24277;SDS011;12394;42.692;23.314;2023-12-20T13:32:51;124.17;;;66.83;;
24277;SDS011;12394;42.692;23.314;2023-12-20T13:35:17;126.60;;;64.07;;
24277;SDS011;12394;42.692;23.314;2023-12-20T13:37:42;131.03;;;63.43;;
24277;SDS011;12394;42.692;23.314;2023-12-20T13:40:09;130.20;;;66.63;;
24277;SDS011;12394;42.692;23.314;2023-12-20T13:42:35;127.07;;;64.63;;
24277;SDS011;12394;42.692;23.314;2023-12-20T13:45:01;120.13;;;62.97;;
24277;SDS011;12394;42.692;23.314;2023-12-20T13:47:26;134.50;;;63.70;;
24277;SDS011;12394;42.692;23.314;2023-12-20T13:49:51;126.13;;;61.70;;
24277;SDS011;12394;42.692;23.314;2023-12-20T13:52:17;127.83;;;60.37;;
24277;SDS011;12394;42.692;23.314;2023-12-20T13:54:43;125.83;;;61.00;;
24277;SDS011;12394;42.692;23.314;2023-12-20T13:57:09;131.73;;;61.90;;
24277;SDS011;12394;42.692;23.314;2023-12-20T13:59:34;109.93;;;57.97;;